Time;durP1;ratioP1;P1;durP2;ratioP2;P2;SDS_P1;SDS_P2;PMS_P1;PMS_P2;Temp;Humidity;BMP_temperature;BMP_pressure;BME280_temperature;BME280_humidity;BME280_pressure;Samples;Min_cycle;Max_cycle;Signal;HPM_P1;HPM_P2
2022/06/28 00:01:51;;;;;;;9.55;6.97;;;;;;;;;;5002668;28;20691;-62
2022/06/28 00:04:16;;;;;;;8.88;6.90;;;;;;;;;;5001411;28;20697;-62
2022/06/28 00:06:42;;;;;;;9.52;7.07;;;;;;;;;;5002029;28;20212;-62
2022/06/28 00:09:07;;;;;;;8.90;6.88;;;;;;;;;;5001786;28;20335;-62
2022/06/28 00:11:33;;;;;;;8.63;6.90;;;;;;;;;;5000802;28;20231;-62
2022/06/28 00:13:58;;;;;;;9.18;6.97;;;;;;;;;;4984589;28;20213;-62
2022/06/28 00:16:23;;;;;;;10.25;7.35;;;;;;;;;;5005449;28;20222;-62
2022/06/28 00:18:51;;;;;;;12.02;8.38;;;;;;;;;;5014211;28;20673;-61
2022/06/28 00:21:16;;;;;;;8.60;7.20;;;;;;;;;;5021064;28;20597;-62
2022/06/28 00:23:42;;;;;;;8.95;7.43;;;;;;;;;;5021074;28;20219;-62
2022/06/28 00:26:08;;;;;;;10.88;9.27;;;;;;;;;;5021121;28;20691;-62
2022/06/28 00:28:33;;;;;;;12.70;9.60;;;;;;;;;;5021817;28;20208;-62
2022/06/28 00:30:58;;;;;;;11.50;9.18;;;;;;;;;;5011232;28;20751;-61
2022/06/28 00:33:24;;;;;;;10.65;8.65;;;;;;;;;;5002074;28;20211;-62
2022/06/28 00:35:49;;;;;;;10.52;9.43;;;;;;;;;;4995919;28;20223;-62
2022/06/28 00:38:16;;;;;;;9.93;8.93;;;;;;;;;;4993473;28;20680;-62
2022/06/28 00:40:44;;;;;;;12.05;9.00;;;;;;;;;;5013388;28;20226;-61
2022/06/28 00:43:09;;;;;;;11.10;9.00;;;;;;;;;;5018777;28;20219;-62
2022/06/28 00:45:34;;;;;;;11.30;8.50;;;;;;;;;;5001701;28;20209;-62
2022/06/28 00:48:00;;;;;;;12.05;8.65;;;;;;;;;;5002418;28;20254;-62
2022/06/28 00:50:25;;;;;;;12.13;8.73;;;;;;;;;;4992114;28;20223;-62
2022/06/28 00:52:57;;;;;;;10.75;9.48;;;;;;;;;;5001018;28;20224;-62
2022/06/28 00:55:23;;;;;;;12.93;8.77;;;;;;;;;;5001260;28;20561;-62
2022/06/28 00:57:48;;;;;;;12.52;9.35;;;;;;;;;;4999777;28;20254;-62
2022/06/28 01:00:14;;;;;;;15.32;10.90;;;;;;;;;;4997573;28;20683;-62
2022/06/28 01:02:39;;;;;;;12.98;9.25;;;;;;;;;;4997954;28;20259;-62
2022/06/28 01:05:04;;;;;;;13.73;10.10;;;;;;;;;;5002248;28;20294;-62
2022/06/28 01:07:30;;;;;;;12.63;9.80;;;;;;;;;;5004893;28;20283;-62
2022/06/28 01:09:55;;;;;;;11.32;9.98;;;;;;;;;;5005921;28;20328;-61
2022/06/28 01:12:20;;;;;;;13.23;9.77;;;;;;;;;;5005071;28;20213;-61
2022/06/28 01:14:46;;;;;;;11.07;9.57;;;;;;;;;;5005500;28;20225;-61
2022/06/28 01:17:11;;;;;;;13.15;9.60;;;;;;;;;;5005467;28;20679;-62
2022/06/28 01:19:36;;;;;;;12.30;9.80;;;;;;;;;;5004731;28;20238;-62
2022/06/28 01:22:03;;;;;;;11.30;9.98;;;;;;;;;;5024259;28;20235;-61
2022/06/28 01:24:28;;;;;;;13.60;10.27;;;;;;;;;;4999627;28;20250;-62
2022/06/28 01:26:54;;;;;;;13.25;11.10;;;;;;;;;;5018040;28;20314;-62
2022/06/28 01:29:19;;;;;;;14.00;11.45;;;;;;;;;;5024330;28;20220;-62
2022/06/28 01:31:44;;;;;;;15.27;11.25;;;;;;;;;;5009595;28;20294;-62
2022/06/28 01:34:10;;;;;;;13.20;11.63;;;;;;;;;;5023380;28;20220;-62
2022/06/28 01:36:35;;;;;;;16.70;11.95;;;;;;;;;;5006862;28;20647;-61
2022/06/28 01:39:00;;;;;;;15.18;13.43;;;;;;;;;;5024560;28;20223;-61
2022/06/28 01:41:32;;;;;;;13.70;11.90;;;;;;;;;;5023387;28;20230;-61
2022/06/28 01:43:58;;;;;;;16.42;12.50;;;;;;;;;;5001093;28;20719;-62
2022/06/28 01:46:24;;;;;;;13.95;11.80;;;;;;;;;;5016508;28;20262;-62
2022/06/28 01:48:49;;;;;;;12.20;10.75;;;;;;;;;;5016749;28;20211;-62
2022/06/28 01:51:14;;;;;;;13.30;11.88;;;;;;;;;;5005184;28;20256;-62
2022/06/28 01:53:39;;;;;;;13.18;11.73;;;;;;;;;;5004433;28;20706;-62
2022/06/28 01:56:05;;;;;;;17.27;12.45;;;;;;;;;;5003880;28;20676;-62
2022/06/28 01:58:30;;;;;;;16.90;12.40;;;;;;;;;;5004909;28;20259;-62
2022/06/28 02:00:55;;;;;;;13.85;11.73;;;;;;;;;;5024719;28;20314;-61
2022/06/28 02:03:21;;;;;;;14.60;12.85;;;;;;;;;;5023252;28;20547;-61
2022/06/28 02:05:46;;;;;;;13.40;10.43;;;;;;;;;;5019559;28;20295;-61
2022/06/28 02:08:11;;;;;;;17.58;11.60;;;;;;;;;;4998766;28;20562;-61
2022/06/28 02:10:37;;;;;;;13.40;12.00;;;;;;;;;;4996062;28;20220;-61
2022/06/28 02:13:02;;;;;;;13.93;12.15;;;;;;;;;;5014876;28;20216;-62
2022/06/28 02:15:27;;;;;;;15.32;12.00;;;;;;;;;;5004894;28;20215;-61
2022/06/28 02:17:53;;;;;;;13.63;11.50;;;;;;;;;;5004035;28;20216;-62
2022/06/28 02:20:19;;;;;;;14.20;11.70;;;;;;;;;;5005441;28;20273;-61
2022/06/28 02:22:44;;;;;;;14.63;12.20;;;;;;;;;;5023501;28;20224;-61
2022/06/28 02:25:09;;;;;;;16.45;12.88;;;;;;;;;;5022250;28;20227;-61
2022/06/28 02:27:35;;;;;;;18.30;13.05;;;;;;;;;;5021808;28;20629;-61
2022/06/28 02:30:00;;;;;;;14.55;13.00;;;;;;;;;;5014643;28;20240;-62
2022/06/28 02:32:25;;;;;;;13.82;11.93;;;;;;;;;;5007747;28;20216;-62
2022/06/28 02:40:24;;;;;;;14.93;13.07;;;;;;;;;;5028037;28;20252;-62
2022/06/28 02:42:54;;;;;;;14.50;12.15;;;;;;;;;;5043365;28;20770;-62
2022/06/28 02:45:19;;;;;;;17.88;13.48;;;;;;;;;;5024237;28;21194;-61
2022/06/28 02:47:45;;;;;;;16.08;12.93;;;;;;;;;;5025049;28;20599;-62
2022/06/28 02:50:10;;;;;;;15.40;12.70;;;;;;;;;;5031575;28;20220;-62
2022/06/28 02:52:35;;;;;;;15.13;12.80;;;;;;;;;;5015473;28;20235;-61
2022/06/28 02:55:01;;;;;;;14.48;12.50;;;;;;;;;;5015351;28;20274;-61
2022/06/28 02:57:26;;;;;;;13.30;10.98;;;;;;;;;;5017305;28;20523;-61
2022/06/28 02:59:51;;;;;;;13.55;12.15;;;;;;;;;;5022877;28;20678;-61
2022/06/28 03:02:17;;;;;;;19.27;13.27;;;;;;;;;;5022712;28;20238;-61
2022/06/28 03:04:42;;;;;;;16.35;13.65;;;;;;;;;;5023435;28;20261;-61
2022/06/28 03:07:07;;;;;;;16.27;13.20;;;;;;;;;;5021859;28;20224;-61
2022/06/28 03:09:32;;;;;;;16.20;12.48;;;;;;;;;;5023332;28;20208;-61
2022/06/28 03:11:58;;;;;;;14.38;12.20;;;;;;;;;;5023370;28;20246;-61
2022/06/28 03:14:23;;;;;;;15.75;13.02;;;;;;;;;;5015911;28;20215;-61
2022/06/28 03:16:48;;;;;;;14.98;13.45;;;;;;;;;;5015335;28;20230;-61
2022/06/28 03:19:14;;;;;;;14.70;13.18;;;;;;;;;;5014156;28;20216;-61
2022/06/28 03:21:39;;;;;;;17.42;13.48;;;;;;;;;;5020586;28;20256;-61
2022/06/28 03:24:04;;;;;;;16.20;12.73;;;;;;;;;;5022559;28;20215;-61
2022/06/28 03:26:29;;;;;;;16.17;13.27;;;;;;;;;;5022397;28;20215;-61
2022/06/28 03:28:55;;;;;;;14.32;12.82;;;;;;;;;;5023266;28;20672;-61
2022/06/28 03:31:20;;;;;;;14.95;12.82;;;;;;;;;;5022630;28;20662;-61
2022/06/28 03:33:45;;;;;;;17.40;14.20;;;;;;;;;;5021787;28;20223;-61
2022/06/28 03:36:11;;;;;;;17.65;13.20;;;;;;;;;;5037099;28;20257;-61
2022/06/28 03:38:36;;;;;;;13.88;12.48;;;;;;;;;;5034465;28;20257;-61
2022/06/28 03:41:01;;;;;;;14.05;12.55;;;;;;;;;;5033322;28;20203;-61
2022/06/28 03:43:26;;;;;;;15.05;13.20;;;;;;;;;;5035101;28;21139;-61
2022/06/28 03:45:52;;;;;;;14.20;12.70;;;;;;;;;;5022591;28;20234;-61
2022/06/28 03:48:17;;;;;;;13.77;12.38;;;;;;;;;;5040332;28;20238;-62
2022/06/28 03:50:42;;;;;;;14.63;12.43;;;;;;;;;;5028793;28;20207;-61
2022/06/28 03:53:08;;;;;;;17.25;12.93;;;;;;;;;;5021685;28;20207;-61
2022/06/28 03:55:33;;;;;;;15.00;13.40;;;;;;;;;;5021584;28;20211;-61
2022/06/28 03:57:58;;;;;;;14.68;12.93;;;;;;;;;;5020495;28;20262;-61
2022/06/28 04:00:24;;;;;;;16.02;13.25;;;;;;;;;;5033750;28;20221;-61
2022/06/28 04:02:49;;;;;;;13.90;12.50;;;;;;;;;;5033042;28;20306;-61
2022/06/28 04:05:15;;;;;;;14.70;11.60;;;;;;;;;;5034418;28;20309;-61
2022/06/28 04:07:40;;;;;;;15.43;12.98;;;;;;;;;;5041087;28;20706;-61
2022/06/28 04:10:06;;;;;;;14.93;12.23;;;;;;;;;;5040134;28;20254;-61
2022/06/28 04:12:31;;;;;;;17.85;13.57;;;;;;;;;;5041210;28;20214;-61
2022/06/28 04:14:57;;;;;;;17.48;14.02;;;;;;;;;;5022143;28;20236;-61
2022/06/28 04:17:22;;;;;;;15.35;13.52;;;;;;;;;;5021007;28;20222;-61
2022/06/28 04:19:47;;;;;;;14.93;12.48;;;;;;;;;;5021977;28;20208;-61
2022/06/28 04:22:13;;;;;;;16.60;13.43;;;;;;;;;;5015587;28;20226;-61
2022/06/28 04:24:38;;;;;;;13.75;12.30;;;;;;;;;;5010832;28;20207;-61
2022/06/28 04:27:03;;;;;;;15.43;13.07;;;;;;;;;;5013863;28;20497;-62
2022/06/28 04:29:29;;;;;;;15.60;13.77;;;;;;;;;;5020174;28;20222;-62
2022/06/28 04:31:54;;;;;;;14.25;12.85;;;;;;;;;;5020529;28;20211;-62
2022/06/28 04:34:19;;;;;;;14.43;11.60;;;;;;;;;;5021399;28;20569;-62
2022/06/28 04:36:45;;;;;;;13.57;11.30;;;;;;;;;;5021163;28;20306;-61
2022/06/28 04:39:10;;;;;;;13.10;11.70;;;;;;;;;;5040023;28;20275;-61
2022/06/28 04:41:35;;;;;;;13.23;11.82;;;;;;;;;;5041417;28;20728;-61
2022/06/28 04:44:01;;;;;;;14.52;13.07;;;;;;;;;;5029668;28;20219;-61
2022/06/28 04:46:26;;;;;;;13.88;12.45;;;;;;;;;;5014289;28;20273;-62
2022/06/28 04:48:51;;;;;;;16.00;12.48;;;;;;;;;;5014055;28;20220;-62
2022/06/28 04:51:17;;;;;;;17.52;12.88;;;;;;;;;;5033152;28;20806;-62
2022/06/28 04:53:43;;;;;;;13.50;12.10;;;;;;;;;;5040853;28;20268;-62
2022/06/28 04:56:09;;;;;;;12.38;11.18;;;;;;;;;;5040221;28;20243;-62
2022/06/28 04:58:34;;;;;;;11.38;10.27;;;;;;;;;;5040463;28;20262;-62
2022/06/28 05:00:59;;;;;;;12.93;11.45;;;;;;;;;;5034471;28;20277;-62
2022/06/28 05:03:25;;;;;;;13.82;11.88;;;;;;;;;;5026935;28;20663;-61
2022/06/28 05:05:50;;;;;;;14.10;9.73;;;;;;;;;;5019458;28;21279;-61
2022/06/28 05:08:15;;;;;;;12.57;11.15;;;;;;;;;;5013666;28;20723;-62
2022/06/28 05:10:41;;;;;;;12.38;10.85;;;;;;;;;;5013322;28;20306;-62
2022/06/28 05:13:06;;;;;;;11.43;10.10;;;;;;;;;;5008774;28;20234;-62
2022/06/28 05:15:31;;;;;;;10.52;9.38;;;;;;;;;;5021357;28;20244;-62
2022/06/28 05:17:57;;;;;;;14.52;9.32;;;;;;;;;;5035435;28;20207;-64
2022/06/28 05:20:22;;;;;;;13.83;10.03;;;;;;;;;;5048404;28;20419;-61
2022/06/28 05:22:47;;;;;;;12.88;8.32;;;;;;;;;;5050423;28;20635;-61
2022/06/28 05:25:13;;;;;;;14.40;8.38;;;;;;;;;;5050196;28;20234;-63
2022/06/28 05:27:38;;;;;;;13.90;7.63;;;;;;;;;;5044836;28;20290;-62
2022/06/28 05:30:03;;;;;;;12.95;7.78;;;;;;;;;;5046231;28;20207;-62
2022/06/28 05:32:29;;;;;;;12.23;8.25;;;;;;;;;;5050616;28;20207;-62
2022/06/28 05:34:54;;;;;;;11.02;7.63;;;;;;;;;;5049907;28;20210;-62
2022/06/28 05:37:19;;;;;;;10.60;7.30;;;;;;;;;;5049714;28;20226;-62
2022/06/28 05:39:45;;;;;;;14.45;6.97;;;;;;;;;;5050580;28;20219;-62
2022/06/28 05:42:10;;;;;;;13.15;7.40;;;;;;;;;;5049466;28;20222;-62
2022/06/28 05:44:35;;;;;;;10.68;6.50;;;;;;;;;;5049272;28;20204;-63
2022/06/28 05:47:01;;;;;;;11.95;7.03;;;;;;;;;;5033240;28;20306;-63
2022/06/28 05:49:26;;;;;;;9.63;6.80;;;;;;;;;;5036076;28;20216;-63
2022/06/28 05:51:52;;;;;;;13.45;7.18;;;;;;;;;;5042332;28;20207;-64
2022/06/28 05:54:17;;;;;;;11.05;6.63;;;;;;;;;;5042900;28;20199;-63
2022/06/28 05:56:42;;;;;;;10.68;7.10;;;;;;;;;;5043762;28;20269;-63
2022/06/28 05:59:08;;;;;;;9.63;6.45;;;;;;;;;;5042289;28;20215;-63
2022/06/28 06:01:33;;;;;;;10.88;6.10;;;;;;;;;;5043567;28;20596;-63
2022/06/28 06:03:58;;;;;;;12.10;6.30;;;;;;;;;;5043148;28;20215;-64
2022/06/28 06:06:24;;;;;;;9.38;5.82;;;;;;;;;;5042446;28;20199;-63
2022/06/28 06:08:50;;;;;;;14.90;5.93;;;;;;;;;;5035542;28;20219;-63
2022/06/28 06:11:16;;;;;;;10.40;5.95;;;;;;;;;;5033536;28;20220;-64
2022/06/28 06:13:41;;;;;;;9.38;4.93;;;;;;;;;;5047021;28;20222;-64
2022/06/28 06:16:06;;;;;;;9.75;5.18;;;;;;;;;;5032687;28;20287;-64
2022/06/28 06:18:31;;;;;;;10.57;3.85;;;;;;;;;;5033332;28;20609;-64
2022/06/28 06:20:57;;;;;;;13.15;4.35;;;;;;;;;;5033473;28;20216;-63
2022/06/28 06:23:22;;;;;;;11.85;4.00;;;;;;;;;;5028506;28;20259;-63
2022/06/28 06:25:47;;;;;;;10.70;4.47;;;;;;;;;;5025758;28;20715;-63
2022/06/28 06:28:13;;;;;;;15.60;3.95;;;;;;;;;;5024725;28;20212;-64
2022/06/28 06:30:39;;;;;;;10.98;3.45;;;;;;;;;;5024352;28;20660;-63
2022/06/28 06:33:04;;;;;;;13.48;3.97;;;;;;;;;;5021689;28;20235;-63
2022/06/28 06:35:30;;;;;;;13.70;3.58;;;;;;;;;;5024598;28;20266;-64
2022/06/28 06:38:01;;;;;;;10.38;3.55;;;;;;;;;;5021215;28;20208;-63
2022/06/28 06:40:27;;;;;;;12.52;3.20;;;;;;;;;;5041997;28;20277;-63
2022/06/28 06:42:53;;;;;;;13.10;3.50;;;;;;;;;;5043678;28;20219;-63
2022/06/28 06:45:18;;;;;;;12.63;3.67;;;;;;;;;;5035729;28;20215;-63
2022/06/28 06:47:43;;;;;;;12.27;3.67;;;;;;;;;;5033020;28;20230;-63
2022/06/28 06:50:08;;;;;;;11.00;2.97;;;;;;;;;;5032715;28;20619;-63
2022/06/28 06:52:34;;;;;;;13.43;3.85;;;;;;;;;;5032319;28;20840;-63
2022/06/28 06:55:00;;;;;;;14.18;4.07;;;;;;;;;;5032104;28;20208;-64
2022/06/28 06:57:25;;;;;;;15.32;3.83;;;;;;;;;;5031630;28;20302;-64
2022/06/28 06:59:50;;;;;;;14.23;4.07;;;;;;;;;;5032864;28;20318;-63
2022/06/28 07:02:16;;;;;;;14.80;3.75;;;;;;;;;;5032567;28;20223;-65
2022/06/28 07:04:41;;;;;;;14.93;4.30;;;;;;;;;;5032068;28;20243;-65
2022/06/28 07:07:06;;;;;;;13.38;4.32;;;;;;;;;;5031954;28;20212;-63
2022/06/28 07:09:32;;;;;;;14.68;3.88;;;;;;;;;;5032673;28;20690;-63
2022/06/28 07:11:57;;;;;;;14.52;3.70;;;;;;;;;;5032041;28;20262;-64
2022/06/28 07:14:22;;;;;;;16.17;3.83;;;;;;;;;;5032297;28;20204;-63
2022/06/28 07:16:48;;;;;;;13.35;5.07;;;;;;;;;;5032920;28;20219;-63
2022/06/28 07:19:14;;;;;;;11.98;3.88;;;;;;;;;;5031197;28;20223;-62
2022/06/28 07:21:40;;;;;;;15.55;3.83;;;;;;;;;;5032338;28;20220;-63
2022/06/28 07:24:07;;;;;;;13.10;3.92;;;;;;;;;;5031941;28;20212;-63
2022/06/28 07:26:35;;;;;;;13.75;3.88;;;;;;;;;;5031958;28;20580;-63
2022/06/28 07:29:01;;;;;;;14.07;4.47;;;;;;;;;;5033417;28;20212;-62
2022/06/28 07:31:27;;;;;;;13.63;3.78;;;;;;;;;;5026714;28;20302;-62
2022/06/28 07:33:53;;;;;;;11.50;3.17;;;;;;;;;;5011591;28;20295;-62
2022/06/28 07:36:18;;;;;;;12.80;3.53;;;;;;;;;;5011931;28;20779;-62
2022/06/28 07:38:43;;;;;;;12.68;2.97;;;;;;;;;;5012189;28;20223;-62
2022/06/28 07:41:09;;;;;;;12.35;3.50;;;;;;;;;;4993822;28;20706;-62
2022/06/28 07:43:34;;;;;;;13.20;4.22;;;;;;;;;;5016274;28;20200;-62
2022/06/28 07:46:01;;;;;;;12.45;3.70;;;;;;;;;;5032225;28;20346;-62
2022/06/28 07:48:26;;;;;;;12.65;3.67;;;;;;;;;;5030685;28;20211;-62
2022/06/28 07:53:35;;;;;;;17.85;4.75;;;;;;;;;;5031011;28;20219;-62
2022/06/28 07:56:00;;;;;;;13.82;3.88;;;;;;;;;;5031642;28;20216;-62
2022/06/28 07:58:25;;;;;;;11.80;2.95;;;;;;;;;;5031942;28;20227;-62
2022/06/28 08:00:51;;;;;;;9.50;3.22;;;;;;;;;;5030914;28;20220;-62
2022/06/28 08:03:16;;;;;;;10.82;3.40;;;;;;;;;;5031097;28;20223;-62
2022/06/28 08:05:41;;;;;;;10.57;3.42;;;;;;;;;;5031215;28;20212;-62
2022/06/28 08:08:07;;;;;;;14.15;2.97;;;;;;;;;;5030280;28;20299;-61
2022/06/28 08:10:32;;;;;;;10.70;2.58;;;;;;;;;;5031804;28;20207;-62
2022/06/28 08:12:58;;;;;;;12.68;2.40;;;;;;;;;;5031883;28;20675;-62
2022/06/28 08:15:23;;;;;;;10.63;2.83;;;;;;;;;;5030275;28;20215;-62
2022/06/28 08:17:48;;;;;;;8.63;2.20;;;;;;;;;;5031463;28;20223;-62
2022/06/28 08:20:13;;;;;;;12.13;3.13;;;;;;;;;;5030786;28;20203;-61
2022/06/28 08:22:39;;;;;;;11.63;3.25;;;;;;;;;;5030653;28;20216;-62
2022/06/28 08:25:05;;;;;;;9.73;2.92;;;;;;;;;;5031008;28;20207;-62
2022/06/28 08:27:30;;;;;;;9.27;2.40;;;;;;;;;;5031512;28;20218;-61
2022/06/28 08:29:55;;;;;;;12.77;3.30;;;;;;;;;;5030591;28;20216;-62
2022/06/28 08:32:22;;;;;;;10.45;2.22;;;;;;;;;;5030961;28;20227;-62
2022/06/28 08:34:48;;;;;;;11.88;2.20;;;;;;;;;;5030957;28;20222;-62
2022/06/28 08:37:13;;;;;;;14.10;3.42;;;;;;;;;;5029938;28;20208;-62
2022/06/28 08:39:38;;;;;;;12.48;2.40;;;;;;;;;;5031237;28;20204;-61
2022/06/28 08:42:04;;;;;;;10.55;2.10;;;;;;;;;;5030932;28;20231;-62
2022/06/28 08:44:31;;;;;;;8.88;2.50;;;;;;;;;;5030617;28;20295;-61
2022/06/28 08:46:56;;;;;;;7.93;1.88;;;;;;;;;;5030917;28;20224;-62
2022/06/28 08:49:24;;;;;;;11.68;2.70;;;;;;;;;;5030617;28;20214;-62
2022/06/28 08:51:49;;;;;;;10.43;2.22;;;;;;;;;;5030114;28;20911;-62
2022/06/28 08:54:15;;;;;;;12.52;2.70;;;;;;;;;;5013103;28;20211;-62
2022/06/28 08:56:40;;;;;;;9.02;2.30;;;;;;;;;;5013646;28;20647;-61
2022/06/28 08:59:06;;;;;;;10.10;2.47;;;;;;;;;;5029900;28;20243;-62
2022/06/28 09:01:31;;;;;;;9.75;2.33;;;;;;;;;;5030829;28;20639;-61
2022/06/28 09:03:56;;;;;;;10.98;2.22;;;;;;;;;;5030173;28;20595;-61
2022/06/28 09:06:23;;;;;;;6.47;2.10;;;;;;;;;;5030063;28;20231;-61
2022/06/28 09:08:48;;;;;;;7.20;2.22;;;;;;;;;;5013603;28;20590;-62
2022/06/28 09:11:14;;;;;;;6.68;1.65;;;;;;;;;;5029660;28;20223;-61
2022/06/28 09:13:40;;;;;;;6.05;2.00;;;;;;;;;;5031260;28;20667;-61
2022/06/28 09:16:05;;;;;;;8.13;2.00;;;;;;;;;;5030338;28;20216;-61
2022/06/28 09:18:33;;;;;;;9.68;2.17;;;;;;;;;;5014255;28;20218;-61
2022/06/28 09:20:59;;;;;;;8.32;2.13;;;;;;;;;;5034585;28;20705;-61
2022/06/28 09:23:24;;;;;;;6.65;1.90;;;;;;;;;;5034177;28;20216;-61
2022/06/28 09:25:49;;;;;;;5.57;1.65;;;;;;;;;;5034001;28;20218;-61
2022/06/28 09:28:21;;;;;;;9.60;1.48;;;;;;;;;;5034339;28;20212;-61
2022/06/28 09:30:47;;;;;;;6.57;1.50;;;;;;;;;;5016725;28;20576;-61
2022/06/28 09:33:23;;;;;;;8.35;1.40;;;;;;;;;;5033149;28;20216;-61
2022/06/28 09:35:56;;;;;;;4.35;1.20;;;;;;;;;;5034272;28;20729;-61
2022/06/28 09:38:27;;;;;;;7.43;1.70;;;;;;;;;;5034140;28;20651;-61
2022/06/28 09:40:53;;;;;;;5.20;1.30;;;;;;;;;;5033878;28;20218;-61
2022/06/28 09:43:18;;;;;;;6.75;1.40;;;;;;;;;;5033718;28;20223;-61
2022/06/28 09:45:45;;;;;;;8.48;1.38;;;;;;;;;;5034231;28;20307;-62
2022/06/28 09:48:17;;;;;;;6.80;1.35;;;;;;;;;;5032839;28;20235;-61
2022/06/28 09:50:42;;;;;;;6.35;1.48;;;;;;;;;;5034296;28;20282;-62
2022/06/28 09:53:07;;;;;;;7.97;1.55;;;;;;;;;;5041900;28;20678;-61
2022/06/28 09:55:33;;;;;;;4.72;1.20;;;;;;;;;;5033923;28;20219;-61
2022/06/28 09:57:58;;;;;;;6.60;1.20;;;;;;;;;;5033943;28;20211;-61
2022/06/28 10:00:24;;;;;;;6.80;1.13;;;;;;;;;;5032667;28;20235;-61
2022/06/28 10:02:50;;;;;;;6.82;0.95;;;;;;;;;;5033733;28;20216;-61
2022/06/28 10:05:16;;;;;;;5.30;1.08;;;;;;;;;;5033636;28;20216;-61
2022/06/28 10:07:41;;;;;;;6.75;1.10;;;;;;;;;;5015306;28;20265;-61
2022/06/28 10:10:07;;;;;;;6.60;0.90;;;;;;;;;;5033595;28;20627;-61
2022/06/28 10:15:17;;;;;;;4.05;0.98;;;;;;;;;;5032580;28;20227;-61
2022/06/28 10:17:49;;;;;;;5.50;1.17;;;;;;;;;;5033416;28;20212;-61
2022/06/28 10:20:22;;;;;;;3.47;1.10;;;;;;;;;;5033462;28;20212;-61
2022/06/28 10:22:48;;;;;;;6.75;1.20;;;;;;;;;;5032784;28;20311;-61
2022/06/28 10:25:17;;;;;;;4.53;1.00;;;;;;;;;;5032941;28;20687;-61
2022/06/28 10:27:44;;;;;;;6.32;1.10;;;;;;;;;;5033367;28;20223;-61
2022/06/28 10:30:19;;;;;;;4.65;1.15;;;;;;;;;;5014478;28;20200;-61
2022/06/28 10:32:45;;;;;;;5.05;1.35;;;;;;;;;;5033586;28;20294;-61
2022/06/28 10:35:35;;;;;;;5.25;1.02;;;;;;;;;;5033292;28;20682;-61
2022/06/28 10:38:09;;;;;;;6.15;1.40;;;;;;;;;;5032851;28;20626;-61
2022/06/28 10:40:38;;;;;;;5.95;1.30;;;;;;;;;;5052799;28;20575;-60
2022/06/28 10:43:03;;;;;;;5.38;1.05;;;;;;;;;;5052020;28;20230;-61
2022/06/28 10:45:48;;;;;;;4.55;1.10;;;;;;;;;;5033323;28;20709;-61
2022/06/28 10:48:14;;;;;;;3.00;0.90;;;;;;;;;;5032135;28;20215;-61
2022/06/28 10:50:58;;;;;;;4.55;1.00;;;;;;;;;;5032260;28;20215;-61
2022/06/28 10:53:24;;;;;;;5.10;1.05;;;;;;;;;;5032494;28;20428;-61
2022/06/28 10:56:07;;;;;;;5.07;1.40;;;;;;;;;;5033270;28;20643;-61
2022/06/28 10:58:33;;;;;;;6.20;1.27;;;;;;;;;;5038752;28;20263;-61
2022/06/28 11:00:58;;;;;;;4.03;1.00;;;;;;;;;;5041264;28;20678;-61
2022/06/28 11:03:23;;;;;;;4.60;1.15;;;;;;;;;;5032039;28;20227;-61
2022/06/28 11:05:51;;;;;;;9.02;1.48;;;;;;;;;;5032096;28;20207;-61
2022/06/28 11:08:29;;;;;;;4.80;0.90;;;;;;;;;;5032513;28;20349;-61
2022/06/28 11:10:59;;;;;;;4.55;1.08;;;;;;;;;;5014607;28;20573;-61
2022/06/28 11:13:24;;;;;;;4.72;1.50;;;;;;;;;;5032229;28;20215;-61
2022/06/28 11:15:49;;;;;;;3.95;1.00;;;;;;;;;;5032720;28;20212;-61
2022/06/28 11:18:23;;;;;;;3.70;0.90;;;;;;;;;;5013387;28;20218;-61
2022/06/28 11:20:48;;;;;;;6.53;1.10;;;;;;;;;;5032750;28;20310;-61
2022/06/28 11:23:22;;;;;;;5.05;1.10;;;;;;;;;;5040357;28;20303;-61
2022/06/28 11:28:31;;;;;;;5.25;1.00;;;;;;;;;;5031875;28;20624;-61
2022/06/28 11:30:56;;;;;;;3.40;1.30;;;;;;;;;;5032310;28;20204;-61
2022/06/28 11:33:29;;;;;;;5.97;1.00;;;;;;;;;;5031459;28;20215;-60
2022/06/28 11:35:58;;;;;;;6.65;1.20;;;;;;;;;;5032411;28;20219;-61
2022/06/28 11:38:23;;;;;;;6.07;0.80;;;;;;;;;;5031433;28;20222;-60
2022/06/28 11:40:50;;;;;;;6.10;0.90;;;;;;;;;;5030793;28;20216;-61
2022/06/28 11:43:18;;;;;;;7.22;1.05;;;;;;;;;;5031423;28;20757;-61
2022/06/28 11:45:44;;;;;;;4.80;1.08;;;;;;;;;;5031489;28;20413;-60
2022/06/28 11:48:10;;;;;;;5.07;1.08;;;;;;;;;;5031776;28;20256;-61
2022/06/28 11:50:42;;;;;;;6.80;1.20;;;;;;;;;;5031906;28;20668;-61
2022/06/28 11:53:07;;;;;;;5.88;1.10;;;;;;;;;;5038827;28;20346;-61
2022/06/28 11:55:45;;;;;;;4.18;0.90;;;;;;;;;;5031657;28;20291;-60
2022/06/28 11:58:13;;;;;;;5.45;1.00;;;;;;;;;;5031389;28;20590;-61
2022/06/28 12:00:38;;;;;;;4.20;0.90;;;;;;;;;;5031312;28;20215;-60
2022/06/28 12:03:04;;;;;;;3.67;1.25;;;;;;;;;;5031410;28;20303;-61
2022/06/28 12:05:30;;;;;;;6.82;1.33;;;;;;;;;;5031500;28;20666;-60
2022/06/28 12:07:55;;;;;;;4.07;1.05;;;;;;;;;;5030874;28;20604;-60
2022/06/28 12:10:28;;;;;;;5.53;1.02;;;;;;;;;;5030857;28;20219;-61
2022/06/28 12:12:53;;;;;;;5.20;1.23;;;;;;;;;;5031985;28;20211;-60
2022/06/28 12:15:23;;;;;;;4.88;1.00;;;;;;;;;;5030362;28;20591;-60
2022/06/28 12:17:49;;;;;;;4.63;1.25;;;;;;;;;;5031652;28;20215;-61
2022/06/28 12:20:15;;;;;;;5.00;1.48;;;;;;;;;;5030633;28;20223;-61
2022/06/28 12:22:40;;;;;;;4.95;1.10;;;;;;;;;;5030804;28;20220;-61
2022/06/28 12:25:07;;;;;;;5.18;1.17;;;;;;;;;;5030650;28;20215;-61
2022/06/28 12:27:34;;;;;;;6.22;1.17;;;;;;;;;;5031445;28;20571;-60
2022/06/28 12:29:59;;;;;;;5.00;1.23;;;;;;;;;;5030816;28;20230;-60
2022/06/28 12:32:25;;;;;;;4.15;0.90;;;;;;;;;;5031135;28;20223;-60
2022/06/28 12:34:56;;;;;;;7.15;1.67;;;;;;;;;;5031159;28;20223;-61
2022/06/28 12:37:21;;;;;;;5.60;1.27;;;;;;;;;;5030609;28;20211;-60
2022/06/28 12:39:46;;;;;;;4.10;1.08;;;;;;;;;;5030976;28;20224;-60
2022/06/28 12:42:12;;;;;;;3.60;1.02;;;;;;;;;;5030170;28;20231;-60
2022/06/28 12:44:37;;;;;;;5.28;0.98;;;;;;;;;;5031526;28;20223;-60
2022/06/28 12:47:02;;;;;;;6.20;1.23;;;;;;;;;;5030963;28;20283;-60
2022/06/28 12:49:28;;;;;;;5.05;0.98;;;;;;;;;;5030251;28;20218;-60
2022/06/28 12:51:53;;;;;;;6.53;1.20;;;;;;;;;;5030866;28;20237;-61
2022/06/28 12:54:19;;;;;;;6.03;1.38;;;;;;;;;;5034035;28;20231;-61
2022/06/28 12:56:44;;;;;;;5.60;1.05;;;;;;;;;;5034744;28;20246;-61
2022/06/28 12:59:09;;;;;;;5.25;1.30;;;;;;;;;;5034858;28;20339;-61
2022/06/28 13:01:34;;;;;;;4.30;1.00;;;;;;;;;;5035280;28;20222;-60
2022/06/28 13:04:00;;;;;;;5.10;1.10;;;;;;;;;;5034634;28;20227;-61
2022/06/28 13:06:25;;;;;;;6.50;1.38;;;;;;;;;;5034450;28;20216;-60
2022/06/28 13:08:51;;;;;;;3.05;1.00;;;;;;;;;;5034997;28;20272;-61
2022/06/28 13:11:16;;;;;;;4.40;1.10;;;;;;;;;;5033784;28;20269;-60
2022/06/28 13:13:41;;;;;;;4.18;0.93;;;;;;;;;;5035575;28;20234;-61
2022/06/28 13:16:07;;;;;;;3.97;1.13;;;;;;;;;;5034775;28;20333;-60
2022/06/28 13:18:32;;;;;;;6.10;0.95;;;;;;;;;;5034132;28;20689;-60
2022/06/28 13:20:58;;;;;;;3.63;1.20;;;;;;;;;;5034761;28;20287;-60
2022/06/28 13:23:25;;;;;;;3.92;1.10;;;;;;;;;;5034257;28;20226;-61
2022/06/28 13:25:50;;;;;;;6.15;1.10;;;;;;;;;;5033965;28;20200;-60
2022/06/28 13:28:16;;;;;;;6.75;1.75;;;;;;;;;;5034417;28;20227;-61
2022/06/28 13:30:41;;;;;;;9.95;1.45;;;;;;;;;;5034862;28;20212;-60
2022/06/28 13:33:07;;;;;;;5.97;1.48;;;;;;;;;;5033818;28;20246;-60
2022/06/28 13:35:32;;;;;;;4.30;1.10;;;;;;;;;;5034532;28;20218;-60
2022/06/28 13:37:58;;;;;;;5.82;1.63;;;;;;;;;;5034140;28;20307;-60
2022/06/28 13:40:24;;;;;;;3.85;1.10;;;;;;;;;;5033181;28;20295;-60
2022/06/28 13:42:49;;;;;;;4.45;1.15;;;;;;;;;;5034589;28;20228;-60
2022/06/28 13:45:15;;;;;;;6.10;1.27;;;;;;;;;;5033630;28;20208;-60
2022/06/28 13:47:40;;;;;;;4.93;1.20;;;;;;;;;;5034297;28;20222;-60
2022/06/28 13:50:06;;;;;;;4.63;1.05;;;;;;;;;;5033876;28;20238;-60
2022/06/28 13:52:31;;;;;;;4.68;1.77;;;;;;;;;;5033208;28;20303;-60
2022/06/28 13:54:57;;;;;;;4.13;1.10;;;;;;;;;;5034344;28;20297;-60
2022/06/28 13:57:25;;;;;;;3.58;1.00;;;;;;;;;;5033657;28;20207;-60
2022/06/28 13:59:51;;;;;;;5.13;1.00;;;;;;;;;;5033650;28;20231;-60
2022/06/28 14:02:16;;;;;;;4.38;0.85;;;;;;;;;;5033670;28;20227;-61
2022/06/28 14:04:42;;;;;;;2.60;0.70;;;;;;;;;;5033652;28;20628;-60
2022/06/28 14:07:07;;;;;;;2.80;0.80;;;;;;;;;;5032535;28;20246;-60
2022/06/28 14:09:32;;;;;;;3.03;0.80;;;;;;;;;;5033922;28;20211;-60
2022/06/28 14:11:58;;;;;;;4.50;0.98;;;;;;;;;;5034072;28;20540;-60
2022/06/28 14:14:23;;;;;;;4.65;0.80;;;;;;;;;;5033033;28;20215;-60
2022/06/28 14:16:48;;;;;;;5.57;0.80;;;;;;;;;;5034114;28;20218;-61
2022/06/28 14:19:14;;;;;;;6.30;0.90;;;;;;;;;;5033169;28;20215;-60
2022/06/28 14:21:39;;;;;;;3.78;0.70;;;;;;;;;;5032927;28;20226;-60
2022/06/28 14:24:04;;;;;;;3.67;1.00;;;;;;;;;;5033053;28;20583;-60
2022/06/28 14:26:30;;;;;;;3.95;1.00;;;;;;;;;;5033838;28;20686;-60
2022/06/28 14:28:56;;;;;;;5.18;0.90;;;;;;;;;;5032916;28;20243;-61
2022/06/28 14:31:22;;;;;;;4.18;0.90;;;;;;;;;;5033363;28;20302;-60
2022/06/28 14:33:48;;;;;;;4.63;0.90;;;;;;;;;;5033460;28;20208;-60
2022/06/28 14:36:13;;;;;;;2.45;0.70;;;;;;;;;;5032073;28;20216;-60
2022/06/28 14:38:38;;;;;;;3.35;1.20;;;;;;;;;;5033183;28;20570;-60
2022/06/28 14:41:04;;;;;;;4.20;0.80;;;;;;;;;;5033111;28;20686;-60